sensor_id;sensor_type;location;lat;lon;timestamp;pressure;altitude;pressure_sealevel;temperature;humidity
71778;BME280;59609;52.430;4.668;2022-08-01T00:00:08;101821.81;;;18.25;100.00
71778;BME280;59609;52.430;4.668;2022-08-01T00:02:34;101830.69;;;18.28;100.00
71778;BME280;59609;52.430;4.668;2022-08-01T00:04:59;101810.88;;;18.23;100.00
71778;BME280;59609;52.430;4.668;2022-08-01T00:07:25;101829.16;;;18.26;100.00
71778;BME280;59609;52.430;4.668;2022-08-01T00:09:51;101827.06;;;18.28;100.00
71778;BME280;59609;52.430;4.668;2022-08-01T00:12:16;101833.38;;;18.22;100.00
71778;BME280;59609;52.430;4.668;2022-08-01T00:14:41;101831.47;;;18.22;100.00
71778;BME280;59609;52.430;4.668;2022-08-01T00:17:07;101829.25;;;18.18;100.00
71778;BME280;59609;52.430;4.668;2022-08-01T00:19:32;101844.91;;;18.19;100.00
71778;BME280;59609;52.430;4.668;2022-08-01T00:21:58;101832.88;;;18.18;100.00
71778;BME280;59609;52.430;4.668;2022-08-01T00:24:23;101835.41;;;18.13;100.00
71778;BME280;59609;52.430;4.668;2022-08-01T00:26:49;101837.53;;;18.11;100.00
71778;BME280;59609;52.430;4.668;2022-08-01T00:29:14;101839.44;;;18.11;100.00
71778;BME280;59609;52.430;4.668;2022-08-01T00:31:39;101836.66;;;18.11;100.00
71778;BME280;59609;52.430;4.668;2022-08-01T00:34:05;101838.75;;;18.09;100.00
71778;BME280;59609;52.430;4.668;2022-08-01T00:36:30;101839.16;;;18.06;100.00
71778;BME280;59609;52.430;4.668;2022-08-01T00:38:55;101851.00;;;18.08;100.00
71778;BME280;59609;52.430;4.668;2022-08-01T00:41:21;101844.56;;;18.07;100.00
71778;BME280;59609;52.430;4.668;2022-08-01T00:43:46;101837.44;;;18.05;100.00
71778;BME280;59609;52.430;4.668;2022-08-01T00:46:12;101845.09;;;18.02;100.00
71778;BME280;59609;52.430;4.668;2022-08-01T00:48:37;101841.28;;;18.04;99.92
71778;BME280;59609;52.430;4.668;2022-08-01T00:51:03;101849.63;;;18.04;99.89
71778;BME280;59609;52.430;4.668;2022-08-01T00:53:30;101846.84;;;18.04;100.00
71778;BME280;59609;52.430;4.668;2022-08-01T00:55:56;101849.81;;;18.02;99.92
71778;BME280;59609;52.430;4.668;2022-08-01T00:58:21;101851.72;;;18.01;100.00
71778;BME280;59609;52.430;4.668;2022-08-01T01:00:47;101854.34;;;18.03;99.85
71778;BME280;59609;52.430;4.668;2022-08-01T01:03:12;101849.81;;;18.02;99.49
71778;BME280;59609;52.430;4.668;2022-08-01T01:05:47;101851.56;;;18.03;99.63
71778;BME280;59609;52.430;4.668;2022-08-01T01:08:17;101857.63;;;18.07;100.00
71778;BME280;59609;52.430;4.668;2022-08-01T01:10:57;101851.38;;;18.05;99.56
71778;BME280;59609;52.430;4.668;2022-08-01T01:13:36;101849.03;;;18.08;99.33
71778;BME280;59609;52.430;4.668;2022-08-01T01:16:09;101855.88;;;18.06;99.38
71778;BME280;59609;52.430;4.668;2022-08-01T01:18:39;101852.44;;;18.04;99.60
71778;BME280;59609;52.430;4.668;2022-08-01T01:21:24;101854.16;;;18.05;99.52
71778;BME280;59609;52.430;4.668;2022-08-01T01:26:59;101840.41;;;18.03;99.73
71778;BME280;59609;52.430;4.668;2022-08-01T01:29:31;101846.66;;;18.05;99.52
71778;BME280;59609;52.430;4.668;2022-08-01T01:34:34;101833.56;;;18.06;100.00
71778;BME280;59609;52.430;4.668;2022-08-01T01:37:02;101845.81;;;18.05;99.85
71778;BME280;59609;52.430;4.668;2022-08-01T01:39:30;101840.41;;;18.03;100.00
71778;BME280;59609;52.430;4.668;2022-08-01T01:41:58;101841.06;;;18.05;100.00
71778;BME280;59609;52.430;4.668;2022-08-01T01:44:26;101843.38;;;18.01;100.00
71778;BME280;59609;52.430;4.668;2022-08-01T01:46:53;101847.03;;;18.02;100.00
71778;BME280;59609;52.430;4.668;2022-08-01T01:49:24;101850.03;;;18.00;100.00
71778;BME280;59609;52.430;4.668;2022-08-01T01:51:53;101852.50;;;17.95;100.00
71778;BME280;59609;52.430;4.668;2022-08-01T01:54:20;101850.09;;;17.92;100.00
71778;BME280;59609;52.430;4.668;2022-08-01T01:56:48;101857.81;;;17.90;100.00
71778;BME280;59609;52.430;4.668;2022-08-01T01:59:20;101855.41;;;17.87;100.00
71778;BME280;59609;52.430;4.668;2022-08-01T02:01:49;101852.13;;;17.84;100.00
71778;BME280;59609;52.430;4.668;2022-08-01T02:04:16;101855.97;;;17.83;100.00
71778;BME280;59609;52.430;4.668;2022-08-01T02:06:45;101854.59;;;17.79;100.00
71778;BME280;59609;52.430;4.668;2022-08-01T02:09:14;101862.28;;;17.77;100.00
71778;BME280;59609;52.430;4.668;2022-08-01T02:11:43;101855.66;;;17.78;100.00
71778;BME280;59609;52.430;4.668;2022-08-01T02:14:10;101858.16;;;17.73;100.00
71778;BME280;59609;52.430;4.668;2022-08-01T02:16:36;101863.72;;;17.73;100.00
71778;BME280;59609;52.430;4.668;2022-08-01T02:19:04;101861.31;;;17.70;100.00
71778;BME280;59609;52.430;4.668;2022-08-01T02:21:33;101868.81;;;17.69;100.00
71778;BME280;59609;52.430;4.668;2022-08-01T02:26:50;101856.28;;;17.65;100.00
71778;BME280;59609;52.430;4.668;2022-08-01T02:29:22;101864.00;;;17.63;100.00
71778;BME280;59609;52.430;4.668;2022-08-01T02:31:51;101865.03;;;17.62;100.00
71778;BME280;59609;52.430;4.668;2022-08-01T02:34:20;101863.31;;;17.61;100.00
71778;BME280;59609;52.430;4.668;2022-08-01T02:36:47;101859.16;;;17.57;100.00
71778;BME280;59609;52.430;4.668;2022-08-01T02:39:16;101858.09;;;17.58;100.00
71778;BME280;59609;52.430;4.668;2022-08-01T02:41:47;101863.88;;;17.57;100.00
71778;BME280;59609;52.430;4.668;2022-08-01T02:44:18;101864.53;;;17.59;100.00
71778;BME280;59609;52.430;4.668;2022-08-01T02:46:54;101867.53;;;17.57;100.00
71778;BME280;59609;52.430;4.668;2022-08-01T02:49:22;101868.06;;;17.52;100.00
71778;BME280;59609;52.430;4.668;2022-08-01T02:51:50;101866.88;;;17.47;100.00
71778;BME280;59609;52.430;4.668;2022-08-01T02:54:17;101866.03;;;17.46;100.00
71778;BME280;59609;52.430;4.668;2022-08-01T02:56:44;101867.25;;;17.44;100.00
71778;BME280;59609;52.430;4.668;2022-08-01T02:59:13;101868.19;;;17.36;100.00
71778;BME280;59609;52.430;4.668;2022-08-01T03:01:42;101863.66;;;17.35;100.00
71778;BME280;59609;52.430;4.668;2022-08-01T03:04:10;101869.22;;;17.35;100.00
71778;BME280;59609;52.430;4.668;2022-08-01T03:06:37;101873.44;;;17.31;100.00
71778;BME280;59609;52.430;4.668;2022-08-01T03:09:03;101874.00;;;17.27;100.00
71778;BME280;59609;52.430;4.668;2022-08-01T03:11:30;101879.97;;;17.24;100.00
71778;BME280;59609;52.430;4.668;2022-08-01T03:13:59;101875.31;;;17.16;100.00
71778;BME280;59609;52.430;4.668;2022-08-01T03:16:26;101876.03;;;17.10;100.00
71778;BME280;59609;52.430;4.668;2022-08-01T03:18:53;101883.03;;;17.06;100.00
71778;BME280;59609;52.430;4.668;2022-08-01T03:21:22;101878.88;;;17.02;100.00
71778;BME280;59609;52.430;4.668;2022-08-01T03:23:50;101886.91;;;16.97;100.00
71778;BME280;59609;52.430;4.668;2022-08-01T03:26:17;101881.38;;;16.89;100.00
71778;BME280;59609;52.430;4.668;2022-08-01T03:28:44;101895.31;;;16.89;100.00
71778;BME280;59609;52.430;4.668;2022-08-01T03:31:11;101889.75;;;16.89;100.00
71778;BME280;59609;52.430;4.668;2022-08-01T03:33:37;101894.78;;;16.93;100.00
71778;BME280;59609;52.430;4.668;2022-08-01T03:36:04;101883.81;;;16.92;100.00
71778;BME280;59609;52.430;4.668;2022-08-01T03:38:37;101886.72;;;16.98;100.00
71778;BME280;59609;52.430;4.668;2022-08-01T03:41:13;101880.47;;;16.96;100.00
71778;BME280;59609;52.430;4.668;2022-08-01T03:43:45;101887.78;;;16.97;100.00
71778;BME280;59609;52.430;4.668;2022-08-01T03:46:19;101900.47;;;17.00;100.00
71778;BME280;59609;52.430;4.668;2022-08-01T03:48:48;101896.66;;;17.01;100.00
71778;BME280;59609;52.430;4.668;2022-08-01T03:51:17;101880.97;;;17.00;100.00
71778;BME280;59609;52.430;4.668;2022-08-01T03:53:45;101894.34;;;17.05;100.00
71778;BME280;59609;52.430;4.668;2022-08-01T03:56:12;101893.78;;;17.09;100.00
71778;BME280;59609;52.430;4.668;2022-08-01T03:58:39;101900.25;;;17.10;100.00
71778;BME280;59609;52.430;4.668;2022-08-01T04:01:06;101901.13;;;17.10;100.00
71778;BME280;59609;52.430;4.668;2022-08-01T04:03:32;101906.31;;;17.13;100.00
71778;BME280;59609;52.430;4.668;2022-08-01T04:05:58;101911.34;;;17.18;100.00
71778;BME280;59609;52.430;4.668;2022-08-01T04:08:39;101907.97;;;17.22;100.00
71778;BME280;59609;52.430;4.668;2022-08-01T04:11:05;101904.81;;;17.25;100.00
71778;BME280;59609;52.430;4.668;2022-08-01T04:13:33;101901.66;;;17.28;100.00
71778;BME280;59609;52.430;4.668;2022-08-01T04:15:58;101904.94;;;17.32;100.00
71778;BME280;59609;52.430;4.668;2022-08-01T04:18:23;101899.22;;;17.33;100.00
71778;BME280;59609;52.430;4.668;2022-08-01T04:20:49;101908.22;;;17.35;100.00
71778;BME280;59609;52.430;4.668;2022-08-01T04:23:17;101901.78;;;17.35;100.00
71778;BME280;59609;52.430;4.668;2022-08-01T04:25:45;101914.31;;;17.39;100.00
71778;BME280;59609;52.430;4.668;2022-08-01T04:28:13;101907.00;;;17.38;100.00
71778;BME280;59609;52.430;4.668;2022-08-01T04:30:43;101915.19;;;17.39;100.00
71778;BME280;59609;52.430;4.668;2022-08-01T04:33:13;101918.47;;;17.43;100.00
71778;BME280;59609;52.430;4.668;2022-08-01T04:35:44;101913.56;;;17.45;100.00
71778;BME280;59609;52.430;4.668;2022-08-01T04:38:13;101924.31;;;17.48;100.00
71778;BME280;59609;52.430;4.668;2022-08-01T04:40:42;101931.66;;;17.49;100.00
71778;BME280;59609;52.430;4.668;2022-08-01T04:43:08;101926.06;;;17.49;100.00
71778;BME280;59609;52.430;4.668;2022-08-01T04:45:34;101936.84;;;17.52;100.00
71778;BME280;59609;52.430;4.668;2022-08-01T04:48:01;101930.97;;;17.47;100.00
71778;BME280;59609;52.430;4.668;2022-08-01T04:50:27;101930.78;;;17.48;100.00
71778;BME280;59609;52.430;4.668;2022-08-01T04:52:52;101934.25;;;17.50;100.00
71778;BME280;59609;52.430;4.668;2022-08-01T04:55:18;101942.25;;;17.54;100.00
71778;BME280;59609;52.430;4.668;2022-08-01T04:57:44;101942.19;;;17.62;100.00
71778;BME280;59609;52.430;4.668;2022-08-01T05:00:10;101942.53;;;17.67;100.00
71778;BME280;59609;52.430;4.668;2022-08-01T05:02:36;101947.78;;;17.62;100.00
71778;BME280;59609;52.430;4.668;2022-08-01T05:05:02;101948.66;;;17.62;100.00
71778;BME280;59609;52.430;4.668;2022-08-01T05:07:27;101945.88;;;17.62;100.00
71778;BME280;59609;52.430;4.668;2022-08-01T05:09:53;101957.75;;;17.56;100.00
71778;BME280;59609;52.430;4.668;2022-08-01T05:12:18;101952.91;;;17.50;100.00
71778;BME280;59609;52.430;4.668;2022-08-01T05:14:44;101950.47;;;17.47;100.00
71778;BME280;59609;52.430;4.668;2022-08-01T05:17:10;101947.38;;;17.42;100.00
71778;BME280;59609;52.430;4.668;2022-08-01T05:19:37;101947.69;;;17.47;100.00
71778;BME280;59609;52.430;4.668;2022-08-01T05:22:04;101945.56;;;17.49;100.00
71778;BME280;59609;52.430;4.668;2022-08-01T05:24:34;101944.16;;;17.53;100.00
71778;BME280;59609;52.430;4.668;2022-08-01T05:27:00;101956.94;;;17.47;99.54
71778;BME280;59609;52.430;4.668;2022-08-01T05:29:26;101958.50;;;17.42;99.07
71778;BME280;59609;52.430;4.668;2022-08-01T05:31:52;101955.22;;;17.38;99.57
71778;BME280;59609;52.430;4.668;2022-08-01T05:34:18;101963.09;;;17.35;99.12
71778;BME280;59609;52.430;4.668;2022-08-01T05:36:43;101970.53;;;17.42;98.67
71778;BME280;59609;52.430;4.668;2022-08-01T05:39:09;101969.28;;;17.45;99.04
71778;BME280;59609;52.430;4.668;2022-08-01T05:41:36;101978.59;;;17.37;96.56
71778;BME280;59609;52.430;4.668;2022-08-01T05:44:02;101975.72;;;17.45;97.77
71778;BME280;59609;52.430;4.668;2022-08-01T05:46:27;101984.28;;;17.44;97.61
71778;BME280;59609;52.430;4.668;2022-08-01T05:48:53;101990.16;;;17.49;96.82
71778;BME280;59609;52.430;4.668;2022-08-01T05:51:18;101995.75;;;17.49;96.92
71778;BME280;59609;52.430;4.668;2022-08-01T05:53:44;101988.78;;;17.45;96.73
71778;BME280;59609;52.430;4.668;2022-08-01T05:56:09;101987.63;;;17.39;95.84
71778;BME280;59609;52.430;4.668;2022-08-01T05:58:34;101997.84;;;17.47;95.58
71778;BME280;59609;52.430;4.668;2022-08-01T06:01:00;101995.91;;;17.56;95.68
71778;BME280;59609;52.430;4.668;2022-08-01T06:03:25;101999.03;;;17.61;94.58
71778;BME280;59609;52.430;4.668;2022-08-01T06:05:51;101997.78;;;17.63;94.94
71778;BME280;59609;52.430;4.668;2022-08-01T06:08:17;102007.38;;;17.61;93.64
71778;BME280;59609;52.430;4.668;2022-08-01T06:10:43;102000.19;;;17.66;95.11
71778;BME280;59609;52.430;4.668;2022-08-01T06:13:08;102003.44;;;17.78;92.92
71778;BME280;59609;52.430;4.668;2022-08-01T06:15:33;102002.44;;;17.93;93.05
71778;BME280;59609;52.430;4.668;2022-08-01T06:17:59;102007.19;;;18.08;91.98
71778;BME280;59609;52.430;4.668;2022-08-01T06:20:25;102003.31;;;18.09;91.15
71778;BME280;59609;52.430;4.668;2022-08-01T06:22:50;101999.88;;;18.07;91.94
71778;BME280;59609;52.430;4.668;2022-08-01T06:25:17;102011.16;;;18.13;92.19
71778;BME280;59609;52.430;4.668;2022-08-01T06:27:43;102010.59;;;18.18;90.51
71778;BME280;59609;52.430;4.668;2022-08-01T06:30:09;102015.19;;;18.11;89.39
71778;BME280;59609;52.430;4.668;2022-08-01T06:32:34;101999.31;;;18.11;89.79
71778;BME280;59609;52.430;4.668;2022-08-01T06:34:59;102000.44;;;18.02;89.03
71778;BME280;59609;52.430;4.668;2022-08-01T06:37:29;102002.22;;;17.95;89.18
71778;BME280;59609;52.430;4.668;2022-08-01T06:39:55;102009.00;;;18.00;89.01
71778;BME280;59609;52.430;4.668;2022-08-01T06:42:20;102006.22;;;18.15;88.44
71778;BME280;59609;52.430;4.668;2022-08-01T06:44:45;102011.94;;;18.22;88.64
71778;BME280;59609;52.430;4.668;2022-08-01T06:47:11;102014.59;;;18.38;88.72
71778;BME280;59609;52.430;4.668;2022-08-01T06:49:36;102012.53;;;18.69;89.09
71778;BME280;59609;52.430;4.668;2022-08-01T06:52:02;102006.06;;;19.13;87.23
71778;BME280;59609;52.430;4.668;2022-08-01T06:54:28;102005.28;;;19.48;85.74
71778;BME280;59609;52.430;4.668;2022-08-01T06:56:54;102010.69;;;19.71;84.25
71778;BME280;59609;52.430;4.668;2022-08-01T06:59:19;102012.88;;;19.75;83.05
71778;BME280;59609;52.430;4.668;2022-08-01T07:01:44;102021.41;;;19.88;82.48
71778;BME280;59609;52.430;4.668;2022-08-01T07:04:10;102008.41;;;20.23;82.09
71778;BME280;59609;52.430;4.668;2022-08-01T07:06:35;102014.09;;;20.30;79.70
71778;BME280;59609;52.430;4.668;2022-08-01T07:09:00;102004.53;;;20.45;80.00
71778;BME280;59609;52.430;4.668;2022-08-01T07:11:27;102014.88;;;20.02;80.61
71778;BME280;59609;52.430;4.668;2022-08-01T07:13:52;101999.56;;;19.41;81.11
71778;BME280;59609;52.430;4.668;2022-08-01T07:16:18;102000.66;;;19.26;83.61
71778;BME280;59609;52.430;4.668;2022-08-01T07:18:43;102017.44;;;18.96;82.41
71778;BME280;59609;52.430;4.668;2022-08-01T07:21:09;102011.44;;;19.29;84.54
71778;BME280;59609;52.430;4.668;2022-08-01T07:23:34;102016.25;;;19.49;82.61
71778;BME280;59609;52.430;4.668;2022-08-01T07:26:00;102016.50;;;19.90;82.77
71778;BME280;59609;52.430;4.668;2022-08-01T07:28:29;102027.94;;;19.95;80.80
71778;BME280;59609;52.430;4.668;2022-08-01T07:30:54;102029.16;;;20.08;77.92
71778;BME280;59609;52.430;4.668;2022-08-01T07:33:20;102033.47;;;20.10;77.19
71778;BME280;59609;52.430;4.668;2022-08-01T07:35:45;102032.53;;;20.24;76.65
71778;BME280;59609;52.430;4.668;2022-08-01T07:38:11;102036.59;;;20.43;75.77
71778;BME280;59609;52.430;4.668;2022-08-01T07:40:37;102044.91;;;20.30;75.74
71778;BME280;59609;52.430;4.668;2022-08-01T07:43:02;102047.69;;;20.30;76.85
71778;BME280;59609;52.430;4.668;2022-08-01T07:45:27;102052.06;;;20.39;74.27
71778;BME280;59609;52.430;4.668;2022-08-01T07:47:53;102056.56;;;20.33;73.34
71778;BME280;59609;52.430;4.668;2022-08-01T07:50:18;102052.28;;;20.37;73.54
71778;BME280;59609;52.430;4.668;2022-08-01T07:52:44;102059.72;;;20.51;75.04
71778;BME280;59609;52.430;4.668;2022-08-01T07:55:10;102058.56;;;20.67;74.06
71778;BME280;59609;52.430;4.668;2022-08-01T07:57:36;102057.94;;;20.72;75.16
71778;BME280;59609;52.430;4.668;2022-08-01T08:00:04;102044.97;;;20.98;73.51
71778;BME280;59609;52.430;4.668;2022-08-01T08:02:29;102053.66;;;21.03;72.17
71778;BME280;59609;52.430;4.668;2022-08-01T08:04:55;102062.13;;;21.10;71.75
71778;BME280;59609;52.430;4.668;2022-08-01T08:07:20;102062.25;;;21.30;70.83
71778;BME280;59609;52.430;4.668;2022-08-01T08:09:45;102055.44;;;21.52;71.07
71778;BME280;59609;52.430;4.668;2022-08-01T08:12:10;102060.38;;;21.43;69.85
71778;BME280;59609;52.430;4.668;2022-08-01T08:14:37;102060.50;;;21.29;68.95
71778;BME280;59609;52.430;4.668;2022-08-01T08:17:03;102063.69;;;21.19;68.90
71778;BME280;59609;52.430;4.668;2022-08-01T08:19:28;102067.88;;;21.36;69.18
71778;BME280;59609;52.430;4.668;2022-08-01T08:21:54;102069.88;;;21.49;68.59
71778;BME280;59609;52.430;4.668;2022-08-01T08:24:19;102072.13;;;21.67;68.77
71778;BME280;59609;52.430;4.668;2022-08-01T08:26:45;102071.72;;;21.76;65.87
71778;BME280;59609;52.430;4.668;2022-08-01T08:29:10;102066.97;;;21.70;65.73
71778;BME280;59609;52.430;4.668;2022-08-01T08:31:36;102076.34;;;21.90;65.67
71778;BME280;59609;52.430;4.668;2022-08-01T08:34:01;102079.06;;;21.71;65.97
71778;BME280;59609;52.430;4.668;2022-08-01T08:36:26;102076.28;;;21.84;66.11
71778;BME280;59609;52.430;4.668;2022-08-01T08:38:52;102087.03;;;21.74;66.34
71778;BME280;59609;52.430;4.668;2022-08-01T08:41:17;102084.78;;;21.97;65.36
71778;BME280;59609;52.430;4.668;2022-08-01T08:43:43;102087.28;;;21.85;63.81
71778;BME280;59609;52.430;4.668;2022-08-01T08:46:08;102086.97;;;22.08;63.39
71778;BME280;59609;52.430;4.668;2022-08-01T08:48:37;102090.47;;;22.36;64.66
71778;BME280;59609;52.430;4.668;2022-08-01T08:51:04;102091.53;;;22.29;65.40
71778;BME280;59609;52.430;4.668;2022-08-01T08:53:31;102085.34;;;22.79;63.19
71778;BME280;59609;52.430;4.668;2022-08-01T08:55:58;102082.25;;;23.14;61.11
71778;BME280;59609;52.430;4.668;2022-08-01T08:58:25;102086.16;;;23.06;61.88
71778;BME280;59609;52.430;4.668;2022-08-01T09:00:53;102074.44;;;23.22;62.68
71778;BME280;59609;52.430;4.668;2022-08-01T09:03:19;102082.41;;;23.32;61.58
71778;BME280;59609;52.430;4.668;2022-08-01T09:05:44;102092.63;;;23.26;60.87
71778;BME280;59609;52.430;4.668;2022-08-01T09:08:09;102097.22;;;23.07;61.34
71778;BME280;59609;52.430;4.668;2022-08-01T09:10:35;102087.03;;;23.06;60.35
71778;BME280;59609;52.430;4.668;2022-08-01T09:13:05;102095.28;;;22.88;58.67
71778;BME280;59609;52.430;4.668;2022-08-01T09:18:36;102098.09;;;22.75;59.00
71778;BME280;59609;52.430;4.668;2022-08-01T09:21:12;102101.13;;;22.87;60.13
71778;BME280;59609;52.430;4.668;2022-08-01T09:23:42;102098.31;;;22.93;59.39
71778;BME280;59609;52.430;4.668;2022-08-01T09:26:13;102104.97;;;23.12;60.46
71778;BME280;59609;52.430;4.668;2022-08-01T09:28:39;102105.66;;;22.94;60.09
71778;BME280;59609;52.430;4.668;2022-08-01T09:36:21;102120.59;;;22.88;59.62
71778;BME280;59609;52.430;4.668;2022-08-01T09:38:47;102116.44;;;22.65;59.49
71778;BME280;59609;52.430;4.668;2022-08-01T09:41:12;102118.41;;;22.77;59.66
71778;BME280;59609;52.430;4.668;2022-08-01T09:43:38;102113.66;;;22.78;61.33
71778;BME280;59609;52.430;4.668;2022-08-01T09:46:10;102122.72;;;22.99;58.33
71778;BME280;59609;52.430;4.668;2022-08-01T09:48:37;102125.97;;;23.09;58.25
71778;BME280;59609;52.430;4.668;2022-08-01T09:51:04;102119.88;;;23.26;57.33
71778;BME280;59609;52.430;4.668;2022-08-01T09:53:44;102120.56;;;23.08;58.12
71778;BME280;59609;52.430;4.668;2022-08-01T09:56:11;102116.03;;;22.87;58.06
71778;BME280;59609;52.430;4.668;2022-08-01T09:58:56;102119.72;;;23.01;58.97
71778;BME280;59609;52.430;4.668;2022-08-01T10:01:22;102122.72;;;22.86;58.65
71778;BME280;59609;52.430;4.668;2022-08-01T10:06:31;102131.16;;;22.99;56.50
71778;BME280;59609;52.430;4.668;2022-08-01T10:08:56;102120.34;;;22.96;56.07
71778;BME280;59609;52.430;4.668;2022-08-01T10:11:23;102125.53;;;22.93;56.50
71778;BME280;59609;52.430;4.668;2022-08-01T10:13:48;102121.22;;;22.97;55.64
71778;BME280;59609;52.430;4.668;2022-08-01T10:16:14;102124.47;;;22.94;55.94
71778;BME280;59609;52.430;4.668;2022-08-01T10:18:41;102124.00;;;23.23;54.89
71778;BME280;59609;52.430;4.668;2022-08-01T10:21:08;102125.09;;;23.09;56.37
71778;BME280;59609;52.430;4.668;2022-08-01T10:23:35;102129.00;;;23.08;54.52
71778;BME280;59609;52.430;4.668;2022-08-01T10:26:01;102132.41;;;23.30;56.33
71778;BME280;59609;52.430;4.668;2022-08-01T10:28:30;102119.00;;;23.25;53.86
71778;BME280;59609;52.430;4.668;2022-08-01T10:31:00;102134.59;;;23.41;54.54
71778;BME280;59609;52.430;4.668;2022-08-01T10:33:25;102126.34;;;23.33;54.83
71778;BME280;59609;52.430;4.668;2022-08-01T10:35:51;102122.47;;;23.27;55.69
71778;BME280;59609;52.430;4.668;2022-08-01T10:38:17;102125.94;;;23.23;54.56
71778;BME280;59609;52.430;4.668;2022-08-01T10:40:42;102130.91;;;23.40;54.82
71778;BME280;59609;52.430;4.668;2022-08-01T10:43:12;102123.78;;;23.44;53.15
71778;BME280;59609;52.430;4.668;2022-08-01T10:45:40;102120.28;;;23.49;54.94
71778;BME280;59609;52.430;4.668;2022-08-01T10:50:53;102127.19;;;24.10;52.36
71778;BME280;59609;52.430;4.668;2022-08-01T10:53:24;102125.69;;;24.15;52.79
71778;BME280;59609;52.430;4.668;2022-08-01T10:58:28;102136.81;;;24.34;52.77
71778;BME280;59609;52.430;4.668;2022-08-01T11:01:45;102141.31;;;24.73;51.42
71778;BME280;59609;52.430;4.668;2022-08-01T11:04:12;102135.47;;;24.75;50.41
71778;BME280;59609;52.430;4.668;2022-08-01T11:14:25;102147.75;;;24.87;48.27
71778;BME280;59609;52.430;4.668;2022-08-01T11:16:51;102153.88;;;24.77;48.53
71778;BME280;59609;52.430;4.668;2022-08-01T11:19:16;102142.22;;;24.67;47.94
71778;BME280;59609;52.430;4.668;2022-08-01T11:27:23;102137.50;;;24.61;49.48
71778;BME280;59609;52.430;4.668;2022-08-01T11:32:49;102127.31;;;24.91;48.38
71778;BME280;59609;52.430;4.668;2022-08-01T11:35:15;102141.44;;;24.91;48.50
71778;BME280;59609;52.430;4.668;2022-08-01T11:37:41;102144.19;;;24.67;49.45
71778;BME280;59609;52.430;4.668;2022-08-01T11:40:26;102141.19;;;25.18;48.35
71778;BME280;59609;52.430;4.668;2022-08-01T11:45:55;102148.72;;;25.24;46.20
71778;BME280;59609;52.430;4.668;2022-08-01T11:48:23;102146.53;;;25.01;47.42
71778;BME280;59609;52.430;4.668;2022-08-01T11:50:53;102142.91;;;24.94;48.01
71778;BME280;59609;52.430;4.668;2022-08-01T11:53:19;102137.56;;;25.10;47.90
71778;BME280;59609;52.430;4.668;2022-08-01T11:55:54;102145.53;;;24.89;45.78
71778;BME280;59609;52.430;4.668;2022-08-01T11:58:24;102137.53;;;24.86;47.66
71778;BME280;59609;52.430;4.668;2022-08-01T12:00:56;102140.47;;;25.22;46.90
71778;BME280;59609;52.430;4.668;2022-08-01T12:03:40;102140.78;;;25.14;48.14
71778;BME280;59609;52.430;4.668;2022-08-01T12:06:05;102143.13;;;25.17;48.41
71778;BME280;59609;52.430;4.668;2022-08-01T12:08:32;102146.22;;;25.34;46.73
71778;BME280;59609;52.430;4.668;2022-08-01T12:11:03;102142.59;;;25.27;46.84
71778;BME280;59609;52.430;4.668;2022-08-01T12:13:40;102151.03;;;25.08;47.54
71778;BME280;59609;52.430;4.668;2022-08-01T12:16:07;102138.81;;;24.90;47.81
71778;BME280;59609;52.430;4.668;2022-08-01T12:18:41;102142.78;;;24.51;47.43
71778;BME280;59609;52.430;4.668;2022-08-01T12:21:07;102156.88;;;24.82;47.88
71778;BME280;59609;52.430;4.668;2022-08-01T12:23:32;102153.16;;;25.13;48.21
71778;BME280;59609;52.430;4.668;2022-08-01T12:25:58;102147.13;;;25.52;45.92
71778;BME280;59609;52.430;4.668;2022-08-01T12:28:25;102155.69;;;25.64;44.75
71778;BME280;59609;52.430;4.668;2022-08-01T12:30:51;102150.44;;;25.68;44.40
71778;BME280;59609;52.430;4.668;2022-08-01T12:33:18;102152.16;;;25.69;44.29
71778;BME280;59609;52.430;4.668;2022-08-01T12:35:44;102152.03;;;25.82;44.35
71778;BME280;59609;52.430;4.668;2022-08-01T12:38:21;102157.38;;;25.47;46.70
71778;BME280;59609;52.430;4.668;2022-08-01T12:40:51;102146.16;;;25.16;46.71
71778;BME280;59609;52.430;4.668;2022-08-01T12:43:18;102155.09;;;25.37;44.25
71778;BME280;59609;52.430;4.668;2022-08-01T12:45:46;102161.53;;;25.44;46.23
71778;BME280;59609;52.430;4.668;2022-08-01T12:48:14;102154.00;;;25.38;44.29
71778;BME280;59609;52.430;4.668;2022-08-01T12:50:41;102149.31;;;25.07;45.80
71778;BME280;59609;52.430;4.668;2022-08-01T12:53:08;102145.97;;;25.35;44.85
71778;BME280;59609;52.430;4.668;2022-08-01T12:55:44;102151.50;;;25.48;44.01
71778;BME280;59609;52.430;4.668;2022-08-01T12:58:12;102149.78;;;25.04;44.67
71778;BME280;59609;52.430;4.668;2022-08-01T13:00:39;102142.34;;;24.79;46.05
71778;BME280;59609;52.430;4.668;2022-08-01T13:08:21;102139.09;;;25.49;44.33
71778;BME280;59609;52.430;4.668;2022-08-01T13:10:47;102139.22;;;25.18;45.07
71778;BME280;59609;52.430;4.668;2022-08-01T13:13:15;102144.88;;;25.36;46.44
71778;BME280;59609;52.430;4.668;2022-08-01T13:15:42;102137.72;;;25.77;45.40
71778;BME280;59609;52.430;4.668;2022-08-01T13:18:29;102142.13;;;25.91;45.34
71778;BME280;59609;52.430;4.668;2022-08-01T13:21:21;102132.94;;;25.59;44.82
71778;BME280;59609;52.430;4.668;2022-08-01T13:26:43;102127.75;;;25.56;45.53
71778;BME280;59609;52.430;4.668;2022-08-01T13:29:11;102131.53;;;25.86;43.96
71778;BME280;59609;52.430;4.668;2022-08-01T13:31:38;102121.22;;;26.10;43.28
71778;BME280;59609;52.430;4.668;2022-08-01T13:34:04;102113.53;;;25.99;44.56
71778;BME280;59609;52.430;4.668;2022-08-01T13:36:30;102120.88;;;25.88;45.40
71778;BME280;59609;52.430;4.668;2022-08-01T13:38:59;102119.59;;;25.66;45.35